Time;durP1;ratioP1;P1;durP2;ratioP2;P2;SDS_P1;SDS_P2;PMS_P1;PMS_P2;Temp;Humidity;BMP_temperature;BMP_pressure;BME280_temperature;BME280_humidity;BME280_pressure;Samples;Min_cycle;Max_cycle;Signal;HPM_P1;HPM_P2
2023/01/26 00:01:37;;;;;;;49.05;16.42;;;;;;;;;;4970272;28;20047;-62
2023/01/26 00:04:03;;;;;;;48.83;15.75;;;;;;;;;;4937100;28;20089;-62
2023/01/26 00:06:29;;;;;;;54.38;17.88;;;;;;;;;;4970165;28;20054;-63
2023/01/26 00:08:56;;;;;;;45.65;16.17;;;;;;;;;;4970210;28;20042;-62
2023/01/26 00:11:23;;;;;;;47.60;16.02;;;;;;;;;;4967853;28;20054;-62
2023/01/26 00:13:53;;;;;;;45.03;16.15;;;;;;;;;;4958016;28;20043;-62
2023/01/26 00:16:19;;;;;;;46.97;17.13;;;;;;;;;;4969473;28;20093;-62
2023/01/26 00:18:45;;;;;;;46.45;16.35;;;;;;;;;;4952220;28;20066;-62
2023/01/26 00:21:12;;;;;;;44.35;16.27;;;;;;;;;;4936099;28;20043;-63
2023/01/26 00:23:38;;;;;;;49.88;16.77;;;;;;;;;;4951712;28;20668;-62
2023/01/26 00:26:08;;;;;;;48.50;16.25;;;;;;;;;;4951762;28;20053;-62
2023/01/26 00:28:34;;;;;;;47.47;16.98;;;;;;;;;;4951622;28;20149;-63
2023/01/26 00:31:26;;;;;;;46.47;16.52;;;;;;;;;;4969286;28;20138;-62
2023/01/26 00:33:55;;;;;;;51.20;16.40;;;0.40;99.90;;;;;;4952856;28;20055;-62
2023/01/26 00:36:21;;;;;;;50.50;16.00;;;;;;;;;;4951665;28;20392;-62
2023/01/26 00:38:47;;;;;;;51.60;17.33;;;;;;;;;;4967737;28;20113;-62
2023/01/26 00:43:58;;;;;;;41.50;15.30;;;;;;;;;;4968788;28;20062;-62
2023/01/26 00:46:24;;;;;;;47.42;16.40;;;;;;;;;;4951564;28;20050;-62
2023/01/26 00:48:50;;;;;;;43.38;15.13;;;;;;;;;;4951215;28;20074;-62
2023/01/26 00:51:16;;;;;;;46.90;16.95;;;;;;;;;;4968860;28;20051;-63
2023/01/26 00:53:42;;;;;;;58.00;17.05;;;;;;;;;;4951084;28;20150;-62
2023/01/26 00:56:08;;;;;;;53.58;18.13;;;;;;;;;;4951480;28;20457;-62
2023/01/26 00:58:34;;;;;;;48.80;16.10;;;;;;;;;;4951323;28;20042;-63
2023/01/26 01:01:00;;;;;;;52.55;17.58;;;;;;;;;;4951387;28;20046;-63
2023/01/26 01:03:26;;;;;;;49.97;17.50;;;;;;;;;;4951309;28;20050;-62
2023/01/26 01:05:52;;;;;;;51.30;16.48;;;;;;;;;;4968553;28;20760;-62
2023/01/26 01:08:18;;;;;;;50.47;16.70;;;;;;;;;;4951531;28;20062;-62
2023/01/26 01:10:44;;;;;;;52.28;17.95;;;;;;;;;;4968923;28;20248;-62
2023/01/26 01:13:10;;;;;;;58.13;17.48;;;;;;;;;;4937565;28;20878;-62
2023/01/26 01:15:37;;;;;;;52.35;18.88;;;;;;;;;;4950989;28;20116;-62
2023/01/26 01:18:03;;;;;;;61.47;19.77;;;;;;;;;;4968408;28;20043;-63
2023/01/26 01:20:29;;;;;;;58.25;18.58;;;;;;;;;;4968339;28;20046;-62
2023/01/26 01:22:55;;;;;;;49.88;17.05;;;;;;;;;;4968504;28;20078;-62
2023/01/26 01:25:21;;;;;;;50.13;17.88;;;;;;;;;;4950682;28;20042;-62
2023/01/26 01:27:47;;;;;;;53.15;18.08;;;;;;;;;;4951066;28;20055;-63
2023/01/26 01:30:13;;;;;;;50.83;17.08;;;;;;;;;;4950719;28;20054;-62
2023/01/26 01:32:39;;;;;;;57.05;17.70;;;;;;;;;;4967858;28;20201;-62
2023/01/26 01:35:05;;;;;;;56.35;18.60;;;;;;;;;;4950167;28;20859;-63
2023/01/26 01:37:32;;;;;;;56.45;17.17;;;;;;;;;;4950409;28;20130;-62
2023/01/26 01:39:58;;;;;;;53.80;17.88;;;;;;;;;;4950407;28;20047;-62
2023/01/26 01:42:25;;;;;;;53.47;18.58;;;;;;;;;;4950173;28;20042;-62
2023/01/26 01:45:10;;;;;;;51.85;16.65;;;;;;;;;;4967519;28;20054;-63
2023/01/26 01:47:35;;;;;;;49.63;17.83;;;;;;;;;;4954197;28;20086;-62
2023/01/26 01:50:03;;;;;;;46.67;16.30;;;0.60;99.90;;;;;;4965946;28;20046;-63
2023/01/26 01:52:30;;;;;;;54.38;18.52;;;;;;;;;;4967530;28;20074;-63
2023/01/26 01:55:06;;;;;;;54.05;17.05;;;;;;;;;;4967527;28;20042;-62
2023/01/26 01:57:51;;;;;;;50.28;18.13;;;;;;;;;;4950045;28;20046;-62
2023/01/26 02:00:19;;;;;;;55.20;17.35;;;;;;;;;;4950053;28;20054;-63
2023/01/26 02:03:09;;;;;;;60.67;17.02;;;;;;;;;;4949950;28;20071;-63
2023/01/26 02:05:38;;;;;;;61.38;18.35;;;;;;;;;;4967055;28;20085;-62
2023/01/26 02:08:05;;;;;;;55.88;17.75;;;;;;;;;;4967269;28;20042;-63
2023/01/26 02:10:31;;;;;;;54.83;17.70;;;;;;;;;;4949700;28;20202;-63
2023/01/26 02:13:01;;;;;;;59.90;17.42;;;;;;;;;;4953359;28;20062;-63
2023/01/26 02:15:27;;;;;;;56.08;18.38;;;;;;;;;;4949833;28;20042;-62
2023/01/26 02:17:53;;;;;;;47.97;17.38;;;;;;;;;;4967287;28;20046;-63
2023/01/26 02:20:28;;;;;;;56.80;18.90;;;0.70;99.90;;;;;;4967249;28;20038;-63
2023/01/26 02:23:02;;;;;;;57.35;17.60;;;;;;;;;;4949935;28;20062;-63
2023/01/26 02:25:34;;;;;;;54.20;16.90;;;;;;;;;;4967491;28;20128;-63
2023/01/26 02:28:01;;;;;;;56.25;16.90;;;;;;;;;;4967304;28;20524;-62
2023/01/26 02:30:27;;;;;;;49.13;17.77;;;;;;;;;;4967206;28;20038;-63
2023/01/26 02:32:54;;;;;;;49.58;17.05;;;;;;;;;;4949917;28;20416;-63
2023/01/26 02:35:20;;;;;;;55.13;17.33;;;;;;;;;;4966812;28;20043;-63
2023/01/26 02:37:46;;;;;;;48.47;15.48;;;;;;;;;;4967070;28;20053;-63
2023/01/26 02:40:18;;;;;;;47.95;16.02;;;;;;;;;;4966883;28;20082;-63
2023/01/26 02:42:44;;;;;;;46.80;16.83;;;;;;;;;;4949590;28;20047;-62
2023/01/26 02:45:13;;;;;;;47.78;16.05;;;0.80;99.90;;;;;;4949599;28;20058;-63
2023/01/26 02:47:40;;;;;;;46.47;15.35;;;;;;;;;;4949801;28;20051;-63
2023/01/26 02:50:07;;;;;;;49.15;15.82;;;;;;;;;;4965544;28;20069;-63
2023/01/26 02:52:33;;;;;;;43.65;16.13;;;;;;;;;;4967034;28;20046;-63
2023/01/26 02:57:44;;;;;;;46.95;16.00;;;;;;;;;;4949877;28;20066;-63
2023/01/26 03:00:21;;;;;;;44.33;15.57;;;;;;;;;;4967061;28;20043;-63
2023/01/26 03:02:47;;;;;;;43.28;15.43;;;;;;;;;;4921858;28;20166;-63
2023/01/26 03:05:13;;;;;;;51.75;15.82;;;;;;;;;;4953446;28;20560;-63
2023/01/26 03:07:39;;;;;;;49.97;16.35;;;;;;;;;;4937005;28;20046;-63
2023/01/26 03:10:05;;;;;;;43.63;15.10;;;;;;;;;;4952887;28;20202;-63
2023/01/26 03:12:31;;;;;;;49.05;16.15;;;;;;;;;;4941607;29;20055;-62
2023/01/26 03:17:42;;;;;;;43.78;15.02;;;;;;;;;;4952791;28;20046;-63
2023/01/26 03:28:41;;;;;;;47.63;15.35;;;;;;;;;;4970074;28;20055;-63
2023/01/26 03:31:07;;;;;;;39.92;14.93;;;;;;;;;;4962015;28;20117;-63
2023/01/26 03:33:33;;;;;;;39.03;14.82;;;;;;;;;;4954208;28;20055;-63
2023/01/26 03:35:59;;;;;;;40.10;14.65;;;;;;;;;;4969935;28;20046;-63
2023/01/26 03:38:25;;;;;;;42.00;15.75;;;;;;;;;;4952459;28;20097;-62
2023/01/26 03:57:19;;;;;;;38.50;14.25;;;;;;;;;;4944131;28;20050;-63
2023/01/26 03:59:45;;;;;;;38.90;14.68;;;;;;;;;;4955361;28;20050;-63
2023/01/26 04:10:26;;;;;;;40.95;15.88;;;;;;;;;;4952203;28;20059;-62
2023/01/26 04:21:25;;;;;;;36.05;13.82;;;;;;;;;;4952169;28;20133;-62
2023/01/26 04:23:58;;;;;;;48.45;16.02;;;1.10;99.90;;;;;;4969687;28;20050;-62
2023/01/26 04:26:33;;;;;;;38.38;15.23;;;;;;;;;;4952618;28;20427;-62
2023/01/26 04:28:59;;;;;;;;;;;;;;;;;;4969917;28;20082;-63
2023/01/26 04:31:25;;;;;;;43.25;15.10;;;;;;;;;;4983524;28;20481;-62
2023/01/26 04:33:51;;;;;;;40.95;14.38;;;;;;;;;;4988531;28;20056;-63
2023/01/26 04:36:17;;;;;;;39.80;15.25;;;;;;;;;;4958767;28;20834;-62
2023/01/26 04:38:43;;;;;;;37.90;16.45;;;;;;;;;;4951776;28;20046;-63
2023/01/26 04:41:09;;;;;;;39.25;14.65;;;;;;;;;;4951694;28;20493;-63
2023/01/26 04:43:35;;;;;;;41.15;13.75;;;;;;;;;;4951356;28;20050;-62
2023/01/26 04:46:02;;;;;;;46.38;15.90;;;;;;;;;;4969289;28;20205;-63
2023/01/26 04:48:28;;;;;;;37.97;15.40;;;;;;;;;;4951231;28;20059;-63
2023/01/26 04:50:55;;;;;;;37.30;14.30;;;;;;;;;;4969229;28;20097;-63
2023/01/26 04:53:21;;;;;;;40.17;14.90;;;;;;;;;;4968876;28;20059;-62
2023/01/26 04:55:47;;;;;;;42.08;16.02;;;;;;;;;;4968548;28;20039;-63
2023/01/26 04:58:13;;;;;;;36.00;15.05;;;;;;;;;;4968919;28;20043;-63
2023/01/26 05:00:39;;;;;;;47.35;17.10;;;;;;;;;;4968673;28;20054;-63
2023/01/26 05:03:05;;;;;;;44.25;15.15;;;;;;;;;;4951411;28;20486;-63
2023/01/26 05:05:34;;;;;;;38.33;14.73;;;;;;;;;;4951156;28;20050;-63
2023/01/26 05:08:00;;;;;;;39.15;14.82;;;;;;;;;;4951353;28;20066;-63
2023/01/26 05:10:26;;;;;;;42.42;16.42;;;;;;;;;;4968403;28;20046;-63
2023/01/26 05:12:52;;;;;;;36.20;15.30;;;;;;;;;;4968372;28;20118;-62
2023/01/26 05:15:18;;;;;;;37.38;15.50;;;;;;;;;;4950833;28;20054;-63
2023/01/26 05:17:44;;;;;;;39.05;15.43;;;;;;;;;;4968362;28;20453;-63
2023/01/26 05:20:11;;;;;;;45.80;15.98;;;;;;;;;;4968306;28;20066;-63
2023/01/26 05:22:37;;;;;;;52.03;17.13;;;;;;;;;;4968212;28;20081;-63
2023/01/26 05:25:03;;;;;;;43.05;16.13;;;;;;;;;;4967333;28;20074;-63
2023/01/26 05:27:29;;;;;;;45.88;17.10;;;;;;;;;;4968360;28;20171;-63
2023/01/26 05:29:59;;;;;;;41.22;15.52;;;;;;;;;;4968022;28;20055;-63
2023/01/26 05:32:25;;;;;;;44.35;15.43;;;;;;;;;;4950753;28;20056;-63
2023/01/26 05:34:51;;;;;;;44.80;15.93;;;;;;;;;;4950491;28;20051;-63
2023/01/26 05:37:17;;;;;;;51.17;17.55;;;;;;;;;;4968342;28;20461;-63
2023/01/26 05:39:43;;;;;;;46.08;16.23;;;;;;;;;;4950490;28;20066;-63
2023/01/26 05:42:13;;;;;;;42.38;15.95;;;;;;;;;;4968113;28;20042;-63
2023/01/26 05:44:39;;;;;;;58.85;16.80;;;;;;;;;;4950492;28;20471;-63
2023/01/26 05:47:05;;;;;;;50.67;17.05;;;;;;;;;;4968146;28;20050;-63
2023/01/26 05:49:31;;;;;;;47.63;16.95;;;;;;;;;;4967719;28;20065;-63
2023/01/26 05:51:57;;;;;;;44.22;16.27;;;;;;;;;;4966402;28;20125;-63
2023/01/26 05:54:23;;;;;;;39.72;15.27;;;;;;;;;;4967645;28;20416;-63
2023/01/26 05:56:49;;;;;;;44.60;16.40;;;;;;;;;;4950431;28;20042;-63
2023/01/26 05:59:15;;;;;;;47.90;16.30;;;;;;;;;;4967926;28;20097;-63
2023/01/26 06:01:41;;;;;;;47.42;16.30;;;;;;;;;;4949992;28;20047;-63
2023/01/26 06:04:07;;;;;;;44.60;15.57;;;;;;;;;;4967502;28;20370;-63
2023/01/26 06:06:33;;;;;;;42.58;17.63;;;;;;;;;;4967531;28;20054;-63
2023/01/26 06:08:59;;;;;;;54.28;17.35;;;;;;;;;;4949793;28;20555;-63
2023/01/26 06:11:25;;;;;;;48.22;16.17;;;;;;;;;;4950092;28;20589;-63
2023/01/26 06:13:51;;;;;;;49.58;16.42;;;;;;;;;;4967191;28;20122;-63
2023/01/26 06:16:17;;;;;;;48.08;15.70;;;;;;;;;;4949788;28;20500;-63
2023/01/26 06:18:46;;;;;;;55.22;17.00;;;;;;;;;;4949912;28;20444;-63
2023/01/26 06:21:12;;;;;;;47.42;15.93;;;;;;;;;;4933792;28;20507;-63
2023/01/26 06:23:38;;;;;;;48.35;16.30;;;;;;;;;;4950143;28;20054;-63
2023/01/26 06:26:06;;;;;;;46.80;17.38;;;;;;;;;;4967559;28;20156;-63
2023/01/26 06:28:32;;;;;;;45.95;16.75;;;;;;;;;;4967540;28;20051;-62
2023/01/26 06:30:59;;;;;;;52.15;17.20;;;;;;;;;;4950166;28;20046;-62
2023/01/26 06:33:25;;;;;;;48.28;15.98;;;;;;;;;;4967261;28;20141;-63
2023/01/26 06:35:53;;;;;;;47.72;16.90;;;;;;;;;;4967318;28;21066;-63
2023/01/26 06:38:19;;;;;;;47.95;17.10;;;;;;;;;;4971217;28;20101;-63
2023/01/26 06:40:45;;;;;;;44.22;16.95;;;;;;;;;;4953567;28;20046;-63
2023/01/26 06:43:11;;;;;;;52.40;16.88;;;;;;;;;;4953669;28;20065;-63
2023/01/26 06:45:37;;;;;;;51.80;16.60;;;;;;;;;;4971014;28;20053;-63
2023/01/26 06:48:03;;;;;;;52.65;16.70;;;;;;;;;;4970810;28;20488;-63
2023/01/26 06:50:32;;;;;;;56.35;16.25;;;;;;;;;;4970791;28;20050;-63
2023/01/26 06:52:59;;;;;;;49.95;15.93;;;;;;;;;;4970828;28;20469;-62
2023/01/26 06:55:35;;;;;;;44.47;15.80;;;;;;;;;;4970692;28;20117;-62
2023/01/26 06:58:01;;;;;;;47.83;15.95;;;;;;;;;;4953348;28;20047;-63
2023/01/26 07:00:27;;;;;;;50.63;15.70;;;;;;;;;;4970656;28;20137;-63
2023/01/26 07:02:53;;;;;;;48.35;16.63;;;1.80;99.90;;;;;;4946724;29;20054;-62
2023/01/26 07:05:19;;;;;;;55.25;18.48;;;;;;;;;;4963685;28;20463;-63
2023/01/26 07:07:45;;;;;;;62.17;17.95;;;;;;;;;;4953238;28;20054;-63
2023/01/26 07:10:11;;;;;;;58.70;18.23;;;;;;;;;;4970632;28;20057;-63
2023/01/26 07:12:38;;;;;;;48.45;16.92;;;;;;;;;;4953149;28;20074;-63
2023/01/26 07:15:04;;;;;;;62.30;19.52;;;;;;;;;;4970525;28;20082;-62
2023/01/26 07:17:31;;;;;;;55.80;19.27;;;;;;;;;;4951279;28;20410;-63
2023/01/26 07:19:56;;;;;;;57.85;18.63;;;;;;;;;;4977998;28;20049;-63
2023/01/26 07:22:22;;;;;;;59.22;19.48;;;;;;;;;;4971760;28;20049;-63
2023/01/26 07:24:48;;;;;;;56.45;19.30;;;;;;;;;;4959326;28;20047;-63
2023/01/26 07:27:14;;;;;;;54.42;18.15;;;;;;;;;;4971718;28;20050;-62
2023/01/26 07:29:40;;;;;;;55.38;19.05;;;;;;;;;;4972144;28;20125;-63
2023/01/26 07:32:06;;;;;;;55.30;17.92;;;;;;;;;;4971317;28;20047;-64
2023/01/26 07:34:32;;;;;;;52.85;18.92;;;;;;;;;;4972212;28;20106;-67
2023/01/26 07:36:58;;;;;;;50.35;17.63;;;;;;;;;;4953644;28;20098;-66
2023/01/26 07:39:24;;;;;;;57.30;17.48;;;;;;;;;;4954400;28;20046;-67
2023/01/26 07:41:50;;;;;;;51.00;18.20;;;;;;;;;;4971745;28;20047;-67
2023/01/26 07:44:16;;;;;;;53.20;18.05;;;;;;;;;;4953624;28;20129;-66
2023/01/26 07:46:42;;;;;;;55.35;19.08;;;;;;;;;;4972153;28;20043;-65
2023/01/26 07:49:11;;;;;;;56.60;18.70;;;;;;;;;;4970230;28;20050;-66
2023/01/26 07:51:38;;;;;;;50.60;17.02;;;;;;;;;;4971784;28;20057;-65
2023/01/26 07:54:05;;;;;;;50.58;16.55;;;;;;;;;;4953366;28;20065;-66
2023/01/26 07:56:31;;;;;;;51.33;16.08;;;;;;;;;;4971878;28;20161;-66
2023/01/26 07:58:57;;;;;;;47.53;15.18;;;;;;;;;;4953048;28;20069;-66
2023/01/26 08:01:23;;;;;;;48.70;16.48;;;;;;;;;;4960528;28;20075;-66
2023/01/26 08:03:50;;;;;;;48.33;15.98;;;;;;;;;;4949096;28;20051;-65
2023/01/26 08:06:17;;;;;;;48.38;15.98;;;;;;;;;;4956695;28;20043;-65
2023/01/26 08:08:43;;;;;;;46.10;14.95;;;;;;;;;;4940166;28;20054;-66
2023/01/26 08:11:10;;;;;;;48.63;16.50;;;;;;;;;;4953025;28;20047;-65
2023/01/26 08:13:36;;;;;;;51.58;17.45;;;;;;;;;;4950177;28;20052;-65
2023/01/26 08:16:04;;;;;;;48.33;16.25;;;;;;;;;;4948193;28;20050;-65
2023/01/26 08:18:30;;;;;;;57.70;18.25;;;;;;;;;;4953639;28;20504;-64
2023/01/26 08:20:56;;;;;;;58.03;17.40;;;;;;;;;;4935804;28;20081;-65
2023/01/26 08:23:22;;;;;;;48.40;15.40;;;;;;;;;;4951532;28;20046;-65
2023/01/26 08:25:48;;;;;;;54.30;16.15;;;;;;;;;;4948276;28;20122;-66
2023/01/26 08:28:14;;;;;;;39.42;15.13;;;;;;;;;;4947869;28;20050;-66
2023/01/26 08:30:40;;;;;;;53.45;16.52;;;;;;;;;;4947604;28;20047;-66
2023/01/26 08:33:06;;;;;;;48.50;15.98;;;;;;;;;;4932339;28;20059;-65
2023/01/26 08:35:33;;;;;;;43.03;12.18;;;;;;;;;;4951803;28;20135;-65
2023/01/26 08:37:59;;;;;;;45.95;14.43;;;;;;;;;;4952605;28;20053;-65
2023/01/26 08:40:25;;;;;;;47.95;15.60;;;2.20;99.90;;;;;;4936428;29;20043;-66
2023/01/26 08:42:51;;;;;;;45.45;13.98;;;;;;;;;;4962749;28;20050;-64
2023/01/26 08:45:17;;;;;;;38.95;14.18;;;;;;;;;;4960734;28;20038;-65
2023/01/26 08:47:44;;;;;;;59.60;15.73;;;;;;;;;;4986985;28;20060;-65
2023/01/26 08:50:11;;;;;;;34.38;12.55;;;;;;;;;;4943574;28;20070;-65
2023/01/26 08:52:37;;;;;;;42.83;14.30;;;;;;;;;;4951782;28;20459;-65
2023/01/26 08:55:03;;;;;;;38.58;13.27;;;;;;;;;;4951278;28;20047;-68
2023/01/26 08:57:29;;;;;;;42.78;13.77;;;;;;;;;;4940289;28;20049;-65
2023/01/26 08:59:55;;;;;;;48.25;14.23;;;3.10;99.90;;;;;;4954109;28;20122;-67
2023/01/26 09:02:21;;;;;;;35.90;12.77;;;;;;;;;;4966617;28;20134;-64
2023/01/26 09:04:47;;;;;;;32.72;12.15;;;;;;;;;;4961162;28;20130;-64
2023/01/26 09:07:13;;;;;;;36.63;13.27;;;;;;;;;;4949800;28;20046;-65
2023/01/26 09:09:39;;;;;;;35.35;12.63;;;;;;;;;;4954880;28;20043;-65
2023/01/26 09:12:05;;;;;;;32.10;10.75;;;;;;;;;;4967973;28;20762;-64
2023/01/26 09:14:30;;;;;;;26.70;11.43;;;4.30;99.90;;;;;;4949984;28;20046;-66
2023/01/26 09:16:56;;;;;;;30.38;10.82;;;;;;;;;;4950457;28;20043;-66
2023/01/26 09:19:22;;;;;;;29.58;11.15;;;;;;;;;;4952889;28;20891;-67
2023/01/26 09:21:52;;;;;;;35.60;11.05;;;;;;;;;;4961850;28;20045;-68
2023/01/26 09:24:19;;;;;;;33.85;10.77;;;;;;;;;;4947708;28;20058;-65
2023/01/26 09:26:45;;;;;;;30.65;6.55;;;;;;;;;;4960706;28;20046;-66
2023/01/26 09:29:10;;;;;;;29.23;5.65;;;6.50;99.90;;;;;;4954575;28;20043;-66
2023/01/26 09:31:36;;;;;;;21.00;4.88;;;6.70;99.90;;;;;;4952644;28;20035;-66
2023/01/26 09:34:02;;;;;;;23.48;4.75;;;;;;;;;;4939861;28;20046;-68
2023/01/26 09:36:28;;;;;;;21.38;5.40;;;;;;;;;;4956687;28;20046;-65
2023/01/26 09:38:54;;;;;;;25.27;4.85;;;;;;;;;;4946689;28;20035;-67
2023/01/26 09:41:19;;;;;;;30.00;5.65;;;;;;;;;;4951753;28;20559;-67
2023/01/26 09:43:57;;;;;;;22.50;4.82;;;;;;;;;;4950607;28;20047;-65
2023/01/26 09:46:24;;;;;;;25.63;4.15;;;;;;;;;;4934167;28;20058;-66
2023/01/26 09:48:53;;;;;;;29.70;4.18;;;;;;;;;;4958845;28;20058;-66
2023/01/26 09:51:27;;;;;;;25.05;4.60;;;;;;;;;;4935630;28;20496;-66
2023/01/26 09:54:17;;;;;;;31.77;4.43;;;;;;;;;;4930993;29;20047;-66
2023/01/26 09:56:43;;;;;;;29.45;3.92;;;;;;;;;;4937582;28;20046;-65
2023/01/26 09:59:19;;;;;;;29.60;4.38;;;;;;;;;;4953260;28;20126;-66
2023/01/26 10:01:49;;;;;;;22.92;4.30;;;;;;;;;;4950927;28;20055;-66
2023/01/26 10:04:35;;;;;;;22.13;4.97;;;8.50;99.90;;;;;;4963609;28;20058;-67
2023/01/26 10:07:04;;;;;;;24.45;5.07;;;9.10;99.90;;;;;;4956958;28;20068;-67
2023/01/26 10:09:33;;;;;;;24.13;4.32;;;9.10;99.90;;;;;;4951161;28;20057;-67
2023/01/26 10:12:22;;;;;;;17.58;4.03;;;9.40;99.90;;;;;;4931647;28;20051;-67
2023/01/26 10:15:20;;;;;;;28.13;5.00;;;9.60;99.90;;;;;;4960603;28;20054;-67
2023/01/26 10:17:47;;;;;;;10.95;3.50;;;10.10;99.90;;;;;;4939317;28;20086;-67
2023/01/26 10:20:13;;;;;;;23.73;4.93;;;10.20;99.90;;;;;;4930191;29;20832;-67
2023/01/26 10:22:45;;;;;;;24.73;4.78;;;10.60;99.90;;;;;;4936772;28;20039;-66
2023/01/26 10:25:17;;;;;;;31.02;4.53;;;10.80;99.90;;;;;;4957335;28;20047;-67
2023/01/26 10:27:44;;;;;;;20.15;4.45;;;;;;;;;;4950469;28;20089;-66
2023/01/26 10:30:18;;;;;;;18.00;3.30;;;11.20;99.90;;;;;;4948455;28;20043;-67
2023/01/26 10:32:46;;;;;;;23.33;4.00;;;11.80;99.90;;;;;;4953111;28;20245;-67
2023/01/26 10:35:23;;;;;;;23.20;4.10;;;12.40;99.90;;;;;;4964102;28;20501;-67
2023/01/26 10:37:51;;;;;;;20.65;4.18;;;12.10;99.90;;;;;;4953457;28;20050;-66
2023/01/26 10:40:18;;;;;;;22.23;3.45;;;12.10;99.90;;;;;;4951407;28;20393;-67
2023/01/26 10:42:53;;;;;;;25.52;4.10;;;;;;;;;;4949536;28;20142;-66
2023/01/26 10:45:30;;;;;;;21.35;3.88;;;;;;;;;;4944790;28;20047;-66
2023/01/26 10:48:15;;;;;;;17.02;3.50;;;;;;;;;;4954775;28;20043;-66
2023/01/26 10:50:41;;;;;;;24.45;3.83;;;11.80;99.90;;;;;;4958125;28;20043;-66
2023/01/26 10:53:15;;;;;;;24.67;3.80;;;11.90;99.90;;;;;;4947464;28;20046;-66
2023/01/26 10:55:41;;;;;;;17.35;4.30;;;11.80;99.90;;;;;;4932421;28;20052;-67
2023/01/26 10:58:42;;;;;;;20.90;3.90;;;11.50;99.90;;;;;;4932398;28;20058;-66
2023/01/26 11:01:11;;;;;;;18.45;3.83;;;;;;;;;;4931871;28;20146;-66
2023/01/26 11:03:38;;;;;;;20.52;4.47;;;11.60;99.90;;;;;;4961111;28;20166;-66
2023/01/26 11:06:13;;;;;;;17.25;4.03;;;11.40;99.90;;;;;;4939407;28;20540;-66
2023/01/26 11:08:39;;;;;;;16.08;4.07;;;11.20;99.90;;;;;;4938188;29;20083;-66
2023/01/26 11:11:10;;;;;;;20.40;3.08;;;11.40;99.90;;;;;;4933311;28;20086;-66
2023/01/26 11:13:37;;;;;;;24.52;4.05;;;;;;;;;;4931222;28;20046;-66
2023/01/26 11:16:22;;;;;;;14.85;3.45;;;11.40;99.90;;;;;;4931726;28;20098;-66
2023/01/26 11:19:06;;;;;;;16.35;3.20;;;11.10;99.90;;;;;;4946416;28;20043;-66
2023/01/26 11:21:47;;;;;;;19.73;3.42;;;11.00;99.90;;;;;;4960491;28;20047;-66
2023/01/26 11:24:16;;;;;;;17.55;3.17;;;10.80;99.90;;;;;;4952015;28;20039;-66
2023/01/26 11:26:57;;;;;;;16.15;3.00;;;10.70;99.90;;;;;;4959980;28;20050;-66
2023/01/26 11:29:32;;;;;;;21.40;4.10;;;;;;;;;;4939212;28;20122;-66
2023/01/26 11:31:57;;;;;;;;;;;10.40;99.90;;;;;;4944442;28;20054;-66
2023/01/26 11:34:46;;;;;;;20.50;3.45;;;10.50;99.90;;;;;;4937908;28;20668;-67
2023/01/26 11:37:35;;;;;;;14.15;3.13;;;10.30;99.90;;;;;;4958436;28;20122;-66
2023/01/26 11:40:19;;;;;;;16.85;3.20;;;10.20;99.90;;;;;;4955273;28;20444;-66
2023/01/26 11:42:50;;;;;;;21.02;3.88;;;10.00;99.90;;;;;;4940984;28;20809;-66
2023/01/26 11:45:16;;;;;;;17.52;3.10;;;;;;;;;;4953346;28;20149;-67
2023/01/26 11:48:16;;;;;;;21.73;3.75;;;10.10;99.90;;;;;;4939723;28;20508;-66
2023/01/26 11:50:50;;;;;;;14.05;3.00;;;;;;;;;;4972940;28;20492;-66
2023/01/26 11:53:19;;;;;;;18.83;3.20;;;;;;;;;;4984118;28;20173;-66
2023/01/26 11:55:59;;;;;;;15.10;2.67;;;10.60;99.90;;;;;;4966192;28;20126;-66
2023/01/26 11:58:34;;;;;;;16.77;3.03;;;10.70;99.90;;;;;;4972401;28;20122;-66
2023/01/26 12:01:05;;;;;;;13.65;3.65;;;10.50;99.90;;;;;;4972359;28;20089;-66
2023/01/26 12:03:50;;;;;;;11.80;2.65;;;;;;;;;;4964395;28;20058;-65
2023/01/26 12:06:23;;;;;;;17.50;2.63;;;;;;;;;;4942907;28;20039;-66
2023/01/26 12:09:17;;;;;;;17.27;3.25;;;10.80;99.90;;;;;;4934429;29;20401;-66
2023/01/26 12:11:52;;;;;;;8.23;2.55;;;10.60;99.90;;;;;;4943281;29;20058;-66
2023/01/26 12:14:17;;;;;;;15.00;3.65;;;;;;;;;;4933534;28;20055;-65
2023/01/26 12:16:58;;;;;;;12.43;2.72;;;11.80;99.90;;;;;;4932705;29;20039;-66
2023/01/26 12:19:30;;;;;;;13.10;2.67;;;;;;;;;;4954688;28;20122;-66
2023/01/26 12:21:58;;;;;;;13.77;2.70;;;;;;;;;;4934700;29;20401;-66
2023/01/26 12:24:40;;;;;;;13.95;3.67;;;11.30;99.90;;;;;;4938963;28;20039;-66
2023/01/26 12:27:15;;;;;;;16.80;2.50;;;11.10;99.90;;;;;;4955456;28;20058;-67
2023/01/26 12:29:50;;;;;;;10.95;2.30;;;11.00;99.90;;;;;;4941364;28;20055;-65
2023/01/26 12:32:16;;;;;;;20.15;3.03;;;;;;;;;;4946739;28;20508;-66
2023/01/26 12:34:41;;;;;;;12.63;2.40;;;10.80;99.90;;;;;;4962543;28;20051;-65
2023/01/26 12:37:22;;;;;;;11.07;2.10;;;10.80;99.90;;;;;;4953687;28;20098;-66
2023/01/26 12:39:54;;;;;;;18.23;2.55;;;;;;;;;;4934320;28;20627;-65
2023/01/26 12:42:34;;;;;;;14.45;2.28;;;;;;;;;;4951230;28;20089;-66
2023/01/26 12:45:00;;;;;;;13.85;2.55;;;;;;;;;;4943727;28;20096;-66
2023/01/26 12:47:30;;;;;;;16.48;2.25;;;;;;;;;;4952949;28;20078;-66
2023/01/26 12:50:02;;;;;;;12.65;2.40;;;9.90;99.90;;;;;;4949898;28;20055;-65
2023/01/26 12:52:51;;;;;;;17.88;3.42;;;;;;;;;;4946530;28;20074;-66
2023/01/26 12:55:35;;;;;;;15.07;2.40;;;;;;;;;;4962089;28;20049;-65
2023/01/26 12:58:10;;;;;;;10.73;2.45;;;;;;;;;;4942399;28;20055;-65
2023/01/26 13:00:36;;;;;;;12.73;2.85;;;;;;;;;;4959591;28;20034;-65
2023/01/26 13:03:05;;;;;;;12.93;2.75;;;;;;;;;;4938186;28;20449;-66
2023/01/26 13:05:34;;;;;;;14.55;2.45;;;9.40;99.90;;;;;;4943295;28;20066;-65
2023/01/26 13:08:31;;;;;;;13.20;2.28;;;9.40;99.90;;;;;;4955084;28;20051;-67
2023/01/26 13:11:03;;;;;;;8.77;1.90;;;;;;;;;;4925110;28;20044;-67
2023/01/26 13:13:48;;;;;;;13.77;1.95;;;;;;;;;;4927478;28;20042;-67
2023/01/26 13:16:17;;;;;;;9.35;1.77;;;;;;;;;;4946040;28;20042;-67
2023/01/26 13:18:49;;;;;;;9.88;2.10;;;;;;;;;;4932045;28;20039;-67
2023/01/26 13:21:41;;;;;;;7.70;2.33;;;;;;;;;;4951320;28;20042;-67
2023/01/26 13:24:16;;;;;;;12.40;2.58;;;;;;;;;;4940858;28;20062;-67
2023/01/26 13:26:44;;;;;;;8.45;1.98;;;;;;;;;;4944433;28;20053;-67
2023/01/26 13:29:24;;;;;;;16.05;2.20;;;9.30;99.90;;;;;;4961230;28;20051;-67
2023/01/26 13:31:54;;;;;;;7.68;2.10;;;;;;;;;;4940425;28;20477;-67
2023/01/26 13:34:23;;;;;;;12.02;2.33;;;;;;;;;;4945021;28;20126;-67
2023/01/26 13:36:50;;;;;;;14.10;2.53;;;;;;;;;;4953781;28;20516;-67
2023/01/26 13:39:28;;;;;;;7.55;2.28;;;;;;;;;;4941370;28;20043;-66
2023/01/26 13:41:54;;;;;;;9.13;1.85;;;;;;;;;;4960602;28;20046;-67
2023/01/26 13:44:22;;;;;;;11.00;2.00;;;;;;;;;;4962279;28;20047;-67
2023/01/26 13:46:52;;;;;;;9.20;2.70;;;;;;;;;;4950977;28;20038;-66
2023/01/26 13:49:44;;;;;;;11.63;2.00;;;;;;;;;;4929424;28;20066;-67
2023/01/26 13:52:27;;;;;;;11.18;2.25;;;;;;;;;;4948628;28;20055;-67
2023/01/26 13:54:55;;;;;;;6.72;1.60;;;;;;;;;;4948664;28;20520;-66
2023/01/26 13:57:23;;;;;;;6.93;1.88;;;;;;;;;;4924907;29;20043;-67
2023/01/26 13:59:58;;;;;;;13.15;2.67;;;;;;;;;;4956275;28;20150;-67
2023/01/26 14:02:31;;;;;;;8.60;1.70;;;;;;;;;;4948361;28;20042;-67
2023/01/26 14:04:58;;;;;;;18.48;3.22;;;;;;;;;;4929894;28;20043;-67
2023/01/26 14:07:38;;;;;;;12.00;2.00;;;;;;;;;;4939264;28;20070;-67
2023/01/26 14:10:05;;;;;;;8.95;1.65;;;;;;;;;;4956824;28;20043;-67
2023/01/26 14:12:40;;;;;;;11.75;2.22;;;8.50;99.90;;;;;;4937230;28;20038;-67
2023/01/26 14:15:07;;;;;;;8.05;1.65;;;;;;;;;;4957060;28;20050;-67
2023/01/26 14:17:37;;;;;;;11.32;1.98;;;;;;;;;;4952860;28;20117;-67
2023/01/26 14:20:17;;;;;;;11.25;2.22;;;;;;;;;;4930276;28;20043;-67
2023/01/26 14:22:43;;;;;;;7.55;1.80;;;;;;;;;;4959440;28;20066;-67
2023/01/26 14:25:10;;;;;;;9.23;2.25;;;;;;;;;;4943109;28;20126;-67
2023/01/26 14:27:37;;;;;;;12.48;1.80;;;;;;;;;;4959108;28;20047;-67
2023/01/26 14:30:23;;;;;;;11.80;2.20;;;;;;;;;;4933964;28;20379;-67
2023/01/26 14:33:01;;;;;;;13.82;3.50;;;8.30;99.90;;;;;;4946452;28;20082;-67
2023/01/26 14:35:27;;;;;;;13.68;3.95;;;;;;;;;;4933627;28;20047;-66
2023/01/26 14:38:12;;;;;;;12.88;3.33;;;8.00;99.90;;;;;;4954850;28;20047;-66
2023/01/26 14:40:45;;;;;;;17.02;4.43;;;;;;;;;;4933462;28;20101;-66
2023/01/26 14:43:12;;;;;;;17.83;7.93;;;;;;;;;;4948238;28;20462;-66
2023/01/26 14:45:39;;;;;;;17.58;11.02;;;;;;;;;;4957087;28;20047;-66
2023/01/26 14:48:07;;;;;;;15.02;4.55;;;;;;;;;;4954996;28;20193;-68
2023/01/26 14:50:34;;;;;;;13.65;3.20;;;8.30;99.90;;;;;;4948669;28;20087;-66
2023/01/26 14:53:03;;;;;;;9.80;2.45;;;;;;;;;;4944047;28;20050;-67
2023/01/26 14:55:30;;;;;;;17.95;2.95;;;;;;;;;;4936858;28;20121;-67
2023/01/26 14:57:57;;;;;;;9.35;1.80;;;;;;;;;;4944448;28;20039;-67
2023/01/26 15:00:28;;;;;;;17.98;2.40;;;;;;;;;;4949286;28;20559;-67
2023/01/26 15:02:56;;;;;;;14.13;2.50;;;7.80;99.90;;;;;;4937835;28;20039;-67
2023/01/26 15:05:23;;;;;;;13.57;2.67;;;;;;;;;;4942268;28;20035;-67